sensor_id;sensor_type;location;lat;lon;timestamp;P1;durP1;ratioP1;P2;durP2;ratioP2
75851;SDS011;64500;52.632;20.656;2023-05-10T00:00:17;12.50;;;6.30;;
75851;SDS011;64500;52.632;20.656;2023-05-10T00:03:04;12.50;;;5.40;;
75851;SDS011;64500;52.632;20.656;2023-05-10T00:05:31;14.20;;;5.30;;
75851;SDS011;64500;52.632;20.656;2023-05-10T00:08:00;12.70;;;5.60;;
75851;SDS011;64500;52.632;20.656;2023-05-10T00:10:27;12.80;;;5.30;;
75851;SDS011;64500;52.632;20.656;2023-05-10T00:12:54;12.50;;;5.20;;
75851;SDS011;64500;52.632;20.656;2023-05-10T00:15:21;13.50;;;5.90;;
75851;SDS011;64500;52.632;20.656;2023-05-10T00:17:48;12.20;;;5.10;;
75851;SDS011;64500;52.632;20.656;2023-05-10T00:20:14;15.00;;;6.10;;
75851;SDS011;64500;52.632;20.656;2023-05-10T00:22:41;12.90;;;5.60;;
75851;SDS011;64500;52.632;20.656;2023-05-10T00:25:08;13.50;;;5.60;;
75851;SDS011;64500;52.632;20.656;2023-05-10T00:27:35;15.70;;;6.10;;
75851;SDS011;64500;52.632;20.656;2023-05-10T00:30:02;16.90;;;6.10;;
75851;SDS011;64500;52.632;20.656;2023-05-10T00:32:29;12.40;;;5.80;;
75851;SDS011;64500;52.632;20.656;2023-05-10T00:34:57;13.10;;;6.10;;
75851;SDS011;64500;52.632;20.656;2023-05-10T00:37:24;13.90;;;6.80;;
75851;SDS011;64500;52.632;20.656;2023-05-10T00:39:51;13.80;;;6.80;;
75851;SDS011;64500;52.632;20.656;2023-05-10T00:42:17;16.40;;;6.70;;
75851;SDS011;64500;52.632;20.656;2023-05-10T00:44:44;14.80;;;6.30;;
75851;SDS011;64500;52.632;20.656;2023-05-10T00:47:11;13.90;;;6.40;;
75851;SDS011;64500;52.632;20.656;2023-05-10T00:49:38;15.20;;;6.20;;
75851;SDS011;64500;52.632;20.656;2023-05-10T00:52:06;15.20;;;6.70;;
75851;SDS011;64500;52.632;20.656;2023-05-10T00:54:33;14.50;;;6.40;;
75851;SDS011;64500;52.632;20.656;2023-05-10T00:57:00;13.90;;;6.00;;
75851;SDS011;64500;52.632;20.656;2023-05-10T00:59:28;15.40;;;6.40;;
75851;SDS011;64500;52.632;20.656;2023-05-10T01:01:55;13.00;;;6.10;;
75851;SDS011;64500;52.632;20.656;2023-05-10T01:04:21;13.60;;;6.70;;
75851;SDS011;64500;52.632;20.656;2023-05-10T01:06:52;13.60;;;6.30;;
75851;SDS011;64500;52.632;20.656;2023-05-10T01:09:21;14.70;;;6.20;;
75851;SDS011;64500;52.632;20.656;2023-05-10T01:11:48;13.80;;;5.90;;
75851;SDS011;64500;52.632;20.656;2023-05-10T01:14:15;14.80;;;6.30;;
75851;SDS011;64500;52.632;20.656;2023-05-10T01:16:44;13.40;;;6.40;;
75851;SDS011;64500;52.632;20.656;2023-05-10T01:19:22;15.10;;;6.50;;
75851;SDS011;64500;52.632;20.656;2023-05-10T01:37:13;12.10;;;6.50;;
75851;SDS011;64500;52.632;20.656;2023-05-10T01:39:55;14.10;;;6.60;;
75851;SDS011;64500;52.632;20.656;2023-05-10T01:42:25;14.60;;;6.60;;
75851;SDS011;64500;52.632;20.656;2023-05-10T01:49:56;14.40;;;6.70;;
75851;SDS011;64500;52.632;20.656;2023-05-10T01:52:31;13.00;;;6.60;;
75851;SDS011;64500;52.632;20.656;2023-05-10T01:55:04;13.40;;;6.20;;
75851;SDS011;64500;52.632;20.656;2023-05-10T01:57:32;14.30;;;6.30;;
75851;SDS011;64500;52.632;20.656;2023-05-10T02:00:00;11.90;;;6.00;;
75851;SDS011;64500;52.632;20.656;2023-05-10T02:02:29;14.70;;;6.10;;
75851;SDS011;64500;52.632;20.656;2023-05-10T02:04:56;14.30;;;6.40;;
75851;SDS011;64500;52.632;20.656;2023-05-10T02:07:24;13.90;;;6.60;;
75851;SDS011;64500;52.632;20.656;2023-05-10T02:09:51;14.80;;;6.60;;
75851;SDS011;64500;52.632;20.656;2023-05-10T02:12:18;12.90;;;6.20;;
75851;SDS011;64500;52.632;20.656;2023-05-10T02:14:45;11.00;;;5.90;;
75851;SDS011;64500;52.632;20.656;2023-05-10T02:17:13;13.50;;;6.20;;
75851;SDS011;64500;52.632;20.656;2023-05-10T02:19:40;13.40;;;6.30;;
75851;SDS011;64500;52.632;20.656;2023-05-10T02:22:09;11.50;;;5.90;;
75851;SDS011;64500;52.632;20.656;2023-05-10T02:24:36;14.00;;;6.00;;
75851;SDS011;64500;52.632;20.656;2023-05-10T02:27:03;14.80;;;6.50;;
75851;SDS011;64500;52.632;20.656;2023-05-10T02:29:31;14.80;;;5.90;;
75851;SDS011;64500;52.632;20.656;2023-05-10T02:31:59;12.70;;;5.90;;
75851;SDS011;64500;52.632;20.656;2023-05-10T02:34:26;12.50;;;6.00;;
75851;SDS011;64500;52.632;20.656;2023-05-10T02:36:54;13.80;;;6.20;;
75851;SDS011;64500;52.632;20.656;2023-05-10T02:39:21;11.80;;;5.60;;
75851;SDS011;64500;52.632;20.656;2023-05-10T02:41:49;13.30;;;5.80;;
75851;SDS011;64500;52.632;20.656;2023-05-10T02:44:17;11.60;;;5.80;;
75851;SDS011;64500;52.632;20.656;2023-05-10T02:46:45;14.10;;;6.00;;
75851;SDS011;64500;52.632;20.656;2023-05-10T02:49:12;11.40;;;5.50;;
75851;SDS011;64500;52.632;20.656;2023-05-10T02:51:50;14.20;;;6.10;;
75851;SDS011;64500;52.632;20.656;2023-05-10T02:54:22;14.70;;;6.00;;
75851;SDS011;64500;52.632;20.656;2023-05-10T02:56:51;11.50;;;5.60;;
75851;SDS011;64500;52.632;20.656;2023-05-10T02:59:19;12.10;;;5.90;;
75851;SDS011;64500;52.632;20.656;2023-05-10T03:01:46;11.60;;;5.70;;
75851;SDS011;64500;52.632;20.656;2023-05-10T03:04:13;13.40;;;5.90;;
75851;SDS011;64500;52.632;20.656;2023-05-10T03:06:40;11.50;;;5.60;;
75851;SDS011;64500;52.632;20.656;2023-05-10T03:09:07;18.60;;;7.20;;
75851;SDS011;64500;52.632;20.656;2023-05-10T03:14:21;11.60;;;5.60;;
75851;SDS011;64500;52.632;20.656;2023-05-10T03:16:53;13.30;;;6.00;;
75851;SDS011;64500;52.632;20.656;2023-05-10T03:19:24;14.00;;;5.80;;
75851;SDS011;64500;52.632;20.656;2023-05-10T03:21:53;15.00;;;6.20;;
75851;SDS011;64500;52.632;20.656;2023-05-10T03:24:21;12.90;;;5.40;;
75851;SDS011;64500;52.632;20.656;2023-05-10T03:26:49;15.40;;;5.90;;
75851;SDS011;64500;52.632;20.656;2023-05-10T03:29:17;12.50;;;5.70;;
75851;SDS011;64500;52.632;20.656;2023-05-10T03:31:44;11.80;;;5.50;;
75851;SDS011;64500;52.632;20.656;2023-05-10T03:34:10;10.60;;;5.90;;
75851;SDS011;64500;52.632;20.656;2023-05-10T03:36:38;13.50;;;5.50;;
75851;SDS011;64500;52.632;20.656;2023-05-10T03:39:05;11.10;;;5.20;;
75851;SDS011;64500;52.632;20.656;2023-05-10T03:41:32;12.80;;;6.00;;
75851;SDS011;64500;52.632;20.656;2023-05-10T03:43:59;12.30;;;5.10;;
75851;SDS011;64500;52.632;20.656;2023-05-10T03:46:25;11.70;;;5.20;;
75851;SDS011;64500;52.632;20.656;2023-05-10T03:48:53;13.40;;;5.90;;
75851;SDS011;64500;52.632;20.656;2023-05-10T03:51:19;12.50;;;5.80;;
75851;SDS011;64500;52.632;20.656;2023-05-10T03:53:46;12.30;;;4.90;;
75851;SDS011;64500;52.632;20.656;2023-05-10T03:56:13;10.30;;;4.60;;
75851;SDS011;64500;52.632;20.656;2023-05-10T03:58:40;14.20;;;5.20;;
75851;SDS011;64500;52.632;20.656;2023-05-10T04:01:07;12.30;;;5.20;;
75851;SDS011;64500;52.632;20.656;2023-05-10T04:03:34;12.20;;;5.10;;
75851;SDS011;64500;52.632;20.656;2023-05-10T04:06:02;12.50;;;5.30;;
75851;SDS011;64500;52.632;20.656;2023-05-10T04:08:29;11.60;;;4.90;;
75851;SDS011;64500;52.632;20.656;2023-05-10T04:11:06;13.00;;;5.20;;
75851;SDS011;64500;52.632;20.656;2023-05-10T04:13:34;11.10;;;4.70;;
75851;SDS011;64500;52.632;20.656;2023-05-10T04:16:01;10.00;;;4.80;;
75851;SDS011;64500;52.632;20.656;2023-05-10T04:18:28;9.00;;;4.80;;
75851;SDS011;64500;52.632;20.656;2023-05-10T04:20:55;9.90;;;4.80;;
75851;SDS011;64500;52.632;20.656;2023-05-10T04:23:22;14.30;;;5.10;;
75851;SDS011;64500;52.632;20.656;2023-05-10T04:25:48;9.50;;;4.60;;
75851;SDS011;64500;52.632;20.656;2023-05-10T04:28:15;11.20;;;4.60;;
75851;SDS011;64500;52.632;20.656;2023-05-10T04:30:42;12.00;;;5.30;;
75851;SDS011;64500;52.632;20.656;2023-05-10T04:33:09;9.80;;;4.20;;
75851;SDS011;64500;52.632;20.656;2023-05-10T04:35:36;10.70;;;4.50;;
75851;SDS011;64500;52.632;20.656;2023-05-10T04:38:03;8.60;;;4.40;;
75851;SDS011;64500;52.632;20.656;2023-05-10T04:40:30;10.20;;;4.60;;
75851;SDS011;64500;52.632;20.656;2023-05-10T04:42:57;10.30;;;4.90;;
75851;SDS011;64500;52.632;20.656;2023-05-10T04:45:23;18.60;;;4.50;;
75851;SDS011;64500;52.632;20.656;2023-05-10T04:47:50;8.20;;;4.10;;
75851;SDS011;64500;52.632;20.656;2023-05-10T04:50:17;9.70;;;4.40;;
75851;SDS011;64500;52.632;20.656;2023-05-10T04:52:44;8.60;;;4.40;;
75851;SDS011;64500;52.632;20.656;2023-05-10T04:55:11;8.50;;;4.40;;
75851;SDS011;64500;52.632;20.656;2023-05-10T04:57:38;9.60;;;4.60;;
75851;SDS011;64500;52.632;20.656;2023-05-10T05:00:05;7.70;;;4.30;;
75851;SDS011;64500;52.632;20.656;2023-05-10T05:02:32;11.50;;;4.80;;
75851;SDS011;64500;52.632;20.656;2023-05-10T05:04:59;9.50;;;4.40;;
75851;SDS011;64500;52.632;20.656;2023-05-10T05:07:26;11.00;;;4.40;;
75851;SDS011;64500;52.632;20.656;2023-05-10T05:09:53;10.30;;;4.20;;
75851;SDS011;64500;52.632;20.656;2023-05-10T05:12:20;10.00;;;4.40;;
75851;SDS011;64500;52.632;20.656;2023-05-10T05:14:47;10.50;;;4.20;;
75851;SDS011;64500;52.632;20.656;2023-05-10T05:17:14;12.80;;;5.20;;
75851;SDS011;64500;52.632;20.656;2023-05-10T05:19:41;11.30;;;4.30;;
75851;SDS011;64500;52.632;20.656;2023-05-10T05:22:08;10.40;;;4.10;;
75851;SDS011;64500;52.632;20.656;2023-05-10T05:24:35;8.30;;;4.10;;
75851;SDS011;64500;52.632;20.656;2023-05-10T05:27:04;7.70;;;4.30;;
75851;SDS011;64500;52.632;20.656;2023-05-10T05:29:32;8.80;;;4.00;;
75851;SDS011;64500;52.632;20.656;2023-05-10T05:32:01;8.10;;;4.10;;
75851;SDS011;64500;52.632;20.656;2023-05-10T05:34:28;14.40;;;4.80;;
75851;SDS011;64500;52.632;20.656;2023-05-10T05:36:54;8.90;;;3.90;;
75851;SDS011;64500;52.632;20.656;2023-05-10T05:39:22;8.20;;;4.20;;
75851;SDS011;64500;52.632;20.656;2023-05-10T05:41:49;10.20;;;4.00;;
75851;SDS011;64500;52.632;20.656;2023-05-10T05:44:15;12.70;;;4.60;;
75851;SDS011;64500;52.632;20.656;2023-05-10T05:46:42;11.10;;;4.40;;
75851;SDS011;64500;52.632;20.656;2023-05-10T05:49:09;9.80;;;3.60;;
75851;SDS011;64500;52.632;20.656;2023-05-10T05:51:36;10.20;;;4.10;;
75851;SDS011;64500;52.632;20.656;2023-05-10T05:54:03;13.10;;;4.30;;
75851;SDS011;64500;52.632;20.656;2023-05-10T05:56:30;8.90;;;3.90;;
75851;SDS011;64500;52.632;20.656;2023-05-10T05:58:57;11.00;;;3.90;;
75851;SDS011;64500;52.632;20.656;2023-05-10T06:01:24;11.80;;;4.30;;
75851;SDS011;64500;52.632;20.656;2023-05-10T06:03:51;9.10;;;3.90;;
75851;SDS011;64500;52.632;20.656;2023-05-10T06:06:20;10.40;;;4.30;;
75851;SDS011;64500;52.632;20.656;2023-05-10T06:08:47;10.10;;;3.70;;
75851;SDS011;64500;52.632;20.656;2023-05-10T06:11:14;10.00;;;4.20;;
75851;SDS011;64500;52.632;20.656;2023-05-10T06:13:41;12.10;;;3.80;;
75851;SDS011;64500;52.632;20.656;2023-05-10T06:16:09;8.60;;;3.60;;
75851;SDS011;64500;52.632;20.656;2023-05-10T06:18:35;9.10;;;3.60;;
75851;SDS011;64500;52.632;20.656;2023-05-10T06:21:02;9.80;;;3.20;;
75851;SDS011;64500;52.632;20.656;2023-05-10T06:23:29;10.30;;;3.70;;
75851;SDS011;64500;52.632;20.656;2023-05-10T06:25:56;8.30;;;3.30;;
75851;SDS011;64500;52.632;20.656;2023-05-10T06:28:23;9.40;;;3.40;;
75851;SDS011;64500;52.632;20.656;2023-05-10T06:30:50;9.80;;;3.70;;
75851;SDS011;64500;52.632;20.656;2023-05-10T06:33:17;10.00;;;3.80;;
75851;SDS011;64500;52.632;20.656;2023-05-10T06:35:44;9.30;;;3.80;;
75851;SDS011;64500;52.632;20.656;2023-05-10T06:38:11;7.10;;;3.20;;
75851;SDS011;64500;52.632;20.656;2023-05-10T06:40:40;8.10;;;3.00;;
75851;SDS011;64500;52.632;20.656;2023-05-10T06:43:07;7.80;;;2.80;;
75851;SDS011;64500;52.632;20.656;2023-05-10T06:45:34;8.00;;;2.60;;
75851;SDS011;64500;52.632;20.656;2023-05-10T06:48:01;7.60;;;2.80;;
75851;SDS011;64500;52.632;20.656;2023-05-10T06:50:31;12.90;;;3.20;;
75851;SDS011;64500;52.632;20.656;2023-05-10T06:52:59;9.50;;;2.80;;
75851;SDS011;64500;52.632;20.656;2023-05-10T06:55:26;9.60;;;2.80;;
75851;SDS011;64500;52.632;20.656;2023-05-10T06:57:53;8.80;;;2.70;;
75851;SDS011;64500;52.632;20.656;2023-05-10T07:00:20;10.80;;;3.10;;
75851;SDS011;64500;52.632;20.656;2023-05-10T07:02:47;8.90;;;2.60;;
75851;SDS011;64500;52.632;20.656;2023-05-10T07:05:14;10.20;;;2.70;;
75851;SDS011;64500;52.632;20.656;2023-05-10T07:07:41;11.30;;;2.60;;
75851;SDS011;64500;52.632;20.656;2023-05-10T07:10:09;10.00;;;2.60;;
75851;SDS011;64500;52.632;20.656;2023-05-10T07:12:36;10.60;;;3.00;;
75851;SDS011;64500;52.632;20.656;2023-05-10T07:15:03;9.70;;;2.70;;
75851;SDS011;64500;52.632;20.656;2023-05-10T07:17:29;6.90;;;2.60;;
75851;SDS011;64500;52.632;20.656;2023-05-10T07:19:57;14.00;;;3.30;;
75851;SDS011;64500;52.632;20.656;2023-05-10T07:22:24;11.80;;;2.70;;
75851;SDS011;64500;52.632;20.656;2023-05-10T07:24:51;7.90;;;2.20;;
75851;SDS011;64500;52.632;20.656;2023-05-10T07:27:20;7.60;;;2.60;;
75851;SDS011;64500;52.632;20.656;2023-05-10T07:29:47;10.50;;;2.80;;
75851;SDS011;64500;52.632;20.656;2023-05-10T07:32:14;8.10;;;2.70;;
75851;SDS011;64500;52.632;20.656;2023-05-10T07:34:41;10.90;;;3.00;;
75851;SDS011;64500;52.632;20.656;2023-05-10T07:37:08;7.10;;;2.30;;
75851;SDS011;64500;52.632;20.656;2023-05-10T07:39:35;9.70;;;2.60;;
75851;SDS011;64500;52.632;20.656;2023-05-10T07:42:02;8.10;;;2.70;;
75851;SDS011;64500;52.632;20.656;2023-05-10T07:44:29;11.00;;;2.40;;
75851;SDS011;64500;52.632;20.656;2023-05-10T07:46:56;8.20;;;2.70;;
75851;SDS011;64500;52.632;20.656;2023-05-10T07:49:23;7.80;;;2.30;;
75851;SDS011;64500;52.632;20.656;2023-05-10T07:51:52;7.40;;;2.00;;
75851;SDS011;64500;52.632;20.656;2023-05-10T07:54:19;7.20;;;2.30;;
75851;SDS011;64500;52.632;20.656;2023-05-10T07:56:46;7.30;;;2.30;;
75851;SDS011;64500;52.632;20.656;2023-05-10T07:59:16;16.70;;;2.70;;
75851;SDS011;64500;52.632;20.656;2023-05-10T08:01:43;7.90;;;2.10;;
75851;SDS011;64500;52.632;20.656;2023-05-10T08:04:11;9.00;;;2.80;;
75851;SDS011;64500;52.632;20.656;2023-05-10T08:06:38;7.20;;;2.00;;
75851;SDS011;64500;52.632;20.656;2023-05-10T08:09:05;5.70;;;2.20;;
75851;SDS011;64500;52.632;20.656;2023-05-10T08:11:32;9.70;;;2.10;;
75851;SDS011;64500;52.632;20.656;2023-05-10T08:13:59;7.50;;;2.10;;
75851;SDS011;64500;52.632;20.656;2023-05-10T08:16:26;7.30;;;2.00;;
75851;SDS011;64500;52.632;20.656;2023-05-10T08:18:54;18.40;;;2.70;;
75851;SDS011;64500;52.632;20.656;2023-05-10T08:21:21;7.90;;;2.50;;
75851;SDS011;64500;52.632;20.656;2023-05-10T08:23:48;9.00;;;2.40;;
75851;SDS011;64500;52.632;20.656;2023-05-10T08:26:15;11.20;;;2.20;;
75851;SDS011;64500;52.632;20.656;2023-05-10T08:28:42;9.30;;;2.30;;
75851;SDS011;64500;52.632;20.656;2023-05-10T08:31:09;8.30;;;2.10;;
75851;SDS011;64500;52.632;20.656;2023-05-10T08:33:36;18.60;;;2.50;;
75851;SDS011;64500;52.632;20.656;2023-05-10T08:36:03;10.60;;;2.40;;
75851;SDS011;64500;52.632;20.656;2023-05-10T08:38:29;8.00;;;2.20;;
75851;SDS011;64500;52.632;20.656;2023-05-10T08:40:56;6.60;;;1.90;;
75851;SDS011;64500;52.632;20.656;2023-05-10T08:43:26;8.50;;;2.00;;
75851;SDS011;64500;52.632;20.656;2023-05-10T08:45:54;7.20;;;2.20;;
75851;SDS011;64500;52.632;20.656;2023-05-10T08:48:23;7.30;;;2.30;;
75851;SDS011;64500;52.632;20.656;2023-05-10T08:50:52;9.20;;;2.30;;
75851;SDS011;64500;52.632;20.656;2023-05-10T08:53:19;10.40;;;2.40;;
75851;SDS011;64500;52.632;20.656;2023-05-10T08:55:46;8.60;;;2.40;;
75851;SDS011;64500;52.632;20.656;2023-05-10T08:58:13;8.10;;;2.10;;
75851;SDS011;64500;52.632;20.656;2023-05-10T09:00:41;7.20;;;2.00;;
75851;SDS011;64500;52.632;20.656;2023-05-10T09:03:07;9.40;;;2.20;;
75851;SDS011;64500;52.632;20.656;2023-05-10T09:05:35;8.30;;;2.10;;
75851;SDS011;64500;52.632;20.656;2023-05-10T09:08:02;10.10;;;2.40;;
75851;SDS011;64500;52.632;20.656;2023-05-10T09:10:29;8.70;;;2.00;;
75851;SDS011;64500;52.632;20.656;2023-05-10T09:12:57;6.60;;;2.00;;
75851;SDS011;64500;52.632;20.656;2023-05-10T09:15:24;11.80;;;2.70;;
75851;SDS011;64500;52.632;20.656;2023-05-10T09:17:52;11.50;;;2.30;;
75851;SDS011;64500;52.632;20.656;2023-05-10T09:20:18;11.30;;;2.40;;
75851;SDS011;64500;52.632;20.656;2023-05-10T09:22:45;8.40;;;2.40;;
75851;SDS011;64500;52.632;20.656;2023-05-10T09:25:13;8.60;;;2.30;;
75851;SDS011;64500;52.632;20.656;2023-05-10T09:27:41;8.10;;;2.20;;
75851;SDS011;64500;52.632;20.656;2023-05-10T09:30:10;12.20;;;2.20;;
75851;SDS011;64500;52.632;20.656;2023-05-10T09:32:43;11.10;;;2.40;;
75851;SDS011;64500;52.632;20.656;2023-05-10T09:35:14;10.10;;;2.20;;
75851;SDS011;64500;52.632;20.656;2023-05-10T09:37:42;7.50;;;2.10;;
75851;SDS011;64500;52.632;20.656;2023-05-10T09:40:13;9.90;;;2.30;;
75851;SDS011;64500;52.632;20.656;2023-05-10T09:42:41;6.90;;;2.10;;
75851;SDS011;64500;52.632;20.656;2023-05-10T09:45:08;6.60;;;1.90;;
75851;SDS011;64500;52.632;20.656;2023-05-10T09:47:35;7.50;;;2.20;;
75851;SDS011;64500;52.632;20.656;2023-05-10T09:50:02;7.20;;;2.10;;
75851;SDS011;64500;52.632;20.656;2023-05-10T09:52:31;6.30;;;2.10;;
75851;SDS011;64500;52.632;20.656;2023-05-10T09:55:11;6.40;;;2.10;;
75851;SDS011;64500;52.632;20.656;2023-05-10T09:57:38;7.00;;;1.90;;
75851;SDS011;64500;52.632;20.656;2023-05-10T10:00:06;7.40;;;2.00;;
75851;SDS011;64500;52.632;20.656;2023-05-10T10:02:33;8.20;;;2.10;;
75851;SDS011;64500;52.632;20.656;2023-05-10T10:05:04;7.80;;;2.00;;
75851;SDS011;64500;52.632;20.656;2023-05-10T10:07:32;5.00;;;1.90;;
75851;SDS011;64500;52.632;20.656;2023-05-10T10:10:00;7.50;;;2.70;;
75851;SDS011;64500;52.632;20.656;2023-05-10T10:12:27;7.00;;;2.10;;
75851;SDS011;64500;52.632;20.656;2023-05-10T10:14:54;7.10;;;2.00;;
75851;SDS011;64500;52.632;20.656;2023-05-10T10:17:21;11.00;;;1.90;;
75851;SDS011;64500;52.632;20.656;2023-05-10T10:19:49;7.40;;;2.20;;
75851;SDS011;64500;52.632;20.656;2023-05-10T10:22:16;6.70;;;2.20;;
75851;SDS011;64500;52.632;20.656;2023-05-10T10:24:43;8.30;;;2.10;;
75851;SDS011;64500;52.632;20.656;2023-05-10T10:27:55;8.90;;;2.00;;
75851;SDS011;64500;52.632;20.656;2023-05-10T10:30:16;8.60;;;2.00;;
75851;SDS011;64500;52.632;20.656;2023-05-10T10:33:00;9.00;;;2.30;;
75851;SDS011;64500;52.632;20.656;2023-05-10T10:35:34;6.50;;;1.90;;
75851;SDS011;64500;52.632;20.656;2023-05-10T10:38:01;6.10;;;1.90;;
75851;SDS011;64500;52.632;20.656;2023-05-10T10:40:32;6.80;;;2.30;;
75851;SDS011;64500;52.632;20.656;2023-05-10T10:46:08;12.00;;;2.40;;
75851;SDS011;64500;52.632;20.656;2023-05-10T10:48:34;9.50;;;2.20;;
75851;SDS011;64500;52.632;20.656;2023-05-10T10:51:02;11.00;;;2.10;;
75851;SDS011;64500;52.632;20.656;2023-05-10T10:53:29;10.40;;;2.20;;
75851;SDS011;64500;52.632;20.656;2023-05-10T10:56:06;5.60;;;2.00;;
75851;SDS011;64500;52.632;20.656;2023-05-10T10:58:37;13.40;;;3.10;;
75851;SDS011;64500;52.632;20.656;2023-05-10T11:01:11;9.80;;;2.30;;
75851;SDS011;64500;52.632;20.656;2023-05-10T11:03:38;8.60;;;2.30;;
75851;SDS011;64500;52.632;20.656;2023-05-10T11:06:05;5.90;;;2.20;;
75851;SDS011;64500;52.632;20.656;2023-05-10T11:08:32;11.60;;;2.40;;
75851;SDS011;64500;52.632;20.656;2023-05-10T11:13:31;7.80;;;2.00;;
75851;SDS011;64500;52.632;20.656;2023-05-10T11:16:11;6.30;;;2.10;;
75851;SDS011;64500;52.632;20.656;2023-05-10T11:18:38;5.90;;;1.90;;
75851;SDS011;64500;52.632;20.656;2023-05-10T11:21:05;12.10;;;2.70;;
75851;SDS011;64500;52.632;20.656;2023-05-10T11:26:10;6.80;;;1.80;;
75851;SDS011;64500;52.632;20.656;2023-05-10T11:28:44;5.10;;;1.80;;
75851;SDS011;64500;52.632;20.656;2023-05-10T11:31:15;8.50;;;2.00;;
75851;SDS011;64500;52.632;20.656;2023-05-10T11:34:00;9.20;;;2.10;;
75851;SDS011;64500;52.632;20.656;2023-05-10T11:36:33;6.50;;;2.00;;
75851;SDS011;64500;52.632;20.656;2023-05-10T11:39:01;10.70;;;2.20;;
75851;SDS011;64500;52.632;20.656;2023-05-10T11:41:29;8.30;;;1.80;;
75851;SDS011;64500;52.632;20.656;2023-05-10T11:43:57;8.80;;;2.50;;
75851;SDS011;64500;52.632;20.656;2023-05-10T11:46:25;6.90;;;2.20;;
75851;SDS011;64500;52.632;20.656;2023-05-10T11:48:54;8.70;;;2.10;;
75851;SDS011;64500;52.632;20.656;2023-05-10T11:51:22;9.10;;;2.50;;
75851;SDS011;64500;52.632;20.656;2023-05-10T11:53:53;7.90;;;2.20;;
75851;SDS011;64500;52.632;20.656;2023-05-10T11:56:20;9.50;;;2.00;;
75851;SDS011;64500;52.632;20.656;2023-05-10T11:58:52;12.90;;;2.60;;
75851;SDS011;64500;52.632;20.656;2023-05-10T12:01:20;10.60;;;2.20;;
75851;SDS011;64500;52.632;20.656;2023-05-10T12:03:47;9.30;;;1.90;;
75851;SDS011;64500;52.632;20.656;2023-05-10T12:06:15;10.50;;;2.30;;
75851;SDS011;64500;52.632;20.656;2023-05-10T12:08:46;8.20;;;2.30;;
75851;SDS011;64500;52.632;20.656;2023-05-10T12:11:13;7.70;;;2.10;;
75851;SDS011;64500;52.632;20.656;2023-05-10T12:13:43;8.20;;;2.10;;
75851;SDS011;64500;52.632;20.656;2023-05-10T12:16:13;8.70;;;2.30;;
75851;SDS011;64500;52.632;20.656;2023-05-10T12:18:41;12.60;;;2.30;;
75851;SDS011;64500;52.632;20.656;2023-05-10T12:21:11;22.30;;;2.70;;
75851;SDS011;64500;52.632;20.656;2023-05-10T12:23:38;12.80;;;3.00;;
75851;SDS011;64500;52.632;20.656;2023-05-10T12:26:06;7.70;;;2.30;;
75851;SDS011;64500;52.632;20.656;2023-05-10T12:28:33;9.30;;;2.20;;
75851;SDS011;64500;52.632;20.656;2023-05-10T12:31:00;7.50;;;2.10;;
75851;SDS011;64500;52.632;20.656;2023-05-10T12:33:26;8.00;;;2.10;;
75851;SDS011;64500;52.632;20.656;2023-05-10T12:35:54;10.20;;;2.20;;
75851;SDS011;64500;52.632;20.656;2023-05-10T12:38:26;7.40;;;2.20;;
75851;SDS011;64500;52.632;20.656;2023-05-10T12:40:53;10.90;;;2.40;;
75851;SDS011;64500;52.632;20.656;2023-05-10T12:43:20;10.50;;;2.40;;
75851;SDS011;64500;52.632;20.656;2023-05-10T12:45:47;9.90;;;2.50;;
75851;SDS011;64500;52.632;20.656;2023-05-10T12:48:15;5.70;;;2.00;;
75851;SDS011;64500;52.632;20.656;2023-05-10T12:50:42;9.00;;;2.50;;
75851;SDS011;64500;52.632;20.656;2023-05-10T12:53:12;7.70;;;1.90;;
75851;SDS011;64500;52.632;20.656;2023-05-10T12:55:40;7.50;;;2.00;;
75851;SDS011;64500;52.632;20.656;2023-05-10T12:58:07;8.20;;;2.20;;
75851;SDS011;64500;52.632;20.656;2023-05-10T13:00:34;12.60;;;2.70;;
75851;SDS011;64500;52.632;20.656;2023-05-10T13:03:01;8.90;;;2.00;;
75851;SDS011;64500;52.632;20.656;2023-05-10T13:05:28;7.40;;;2.20;;
75851;SDS011;64500;52.632;20.656;2023-05-10T13:07:55;7.90;;;1.90;;
75851;SDS011;64500;52.632;20.656;2023-05-10T13:10:21;11.10;;;2.20;;
75851;SDS011;64500;52.632;20.656;2023-05-10T13:12:51;10.50;;;2.30;;
75851;SDS011;64500;52.632;20.656;2023-05-10T13:15:18;11.70;;;2.60;;
75851;SDS011;64500;52.632;20.656;2023-05-10T13:17:44;8.40;;;2.60;;
75851;SDS011;64500;52.632;20.656;2023-05-10T13:20:12;10.60;;;2.40;;
75851;SDS011;64500;52.632;20.656;2023-05-10T13:22:38;7.40;;;2.40;;
75851;SDS011;64500;52.632;20.656;2023-05-10T13:25:05;7.40;;;2.20;;
75851;SDS011;64500;52.632;20.656;2023-05-10T13:27:32;7.30;;;2.00;;
75851;SDS011;64500;52.632;20.656;2023-05-10T13:29:59;6.80;;;2.30;;
75851;SDS011;64500;52.632;20.656;2023-05-10T13:32:26;8.30;;;2.10;;
75851;SDS011;64500;52.632;20.656;2023-05-10T13:34:53;10.70;;;2.20;;
75851;SDS011;64500;52.632;20.656;2023-05-10T13:37:20;7.50;;;2.10;;
75851;SDS011;64500;52.632;20.656;2023-05-10T13:39:47;5.80;;;2.00;;
75851;SDS011;64500;52.632;20.656;2023-05-10T13:42:14;5.80;;;1.80;;
75851;SDS011;64500;52.632;20.656;2023-05-10T13:44:41;7.20;;;2.10;;
75851;SDS011;64500;52.632;20.656;2023-05-10T13:47:08;10.00;;;2.30;;
75851;SDS011;64500;52.632;20.656;2023-05-10T13:49:35;9.90;;;2.30;;
75851;SDS011;64500;52.632;20.656;2023-05-10T13:52:02;7.10;;;2.00;;
75851;SDS011;64500;52.632;20.656;2023-05-10T13:54:33;8.90;;;2.00;;
75851;SDS011;64500;52.632;20.656;2023-05-10T13:57:01;8.30;;;1.90;;
75851;SDS011;64500;52.632;20.656;2023-05-10T13:59:28;7.70;;;2.30;;
75851;SDS011;64500;52.632;20.656;2023-05-10T14:01:55;6.60;;;2.30;;
75851;SDS011;64500;52.632;20.656;2023-05-10T14:04:23;8.50;;;2.40;;
75851;SDS011;64500;52.632;20.656;2023-05-10T14:06:50;7.00;;;2.10;;
75851;SDS011;64500;52.632;20.656;2023-05-10T14:09:17;7.20;;;2.20;;
75851;SDS011;64500;52.632;20.656;2023-05-10T14:11:44;10.10;;;2.00;;
75851;SDS011;64500;52.632;20.656;2023-05-10T14:14:12;10.00;;;2.10;;
75851;SDS011;64500;52.632;20.656;2023-05-10T14:16:43;7.50;;;2.10;;
75851;SDS011;64500;52.632;20.656;2023-05-10T14:19:10;7.70;;;2.00;;
75851;SDS011;64500;52.632;20.656;2023-05-10T14:21:37;8.50;;;3.20;;
75851;SDS011;64500;52.632;20.656;2023-05-10T14:24:05;7.40;;;1.90;;
75851;SDS011;64500;52.632;20.656;2023-05-10T14:26:33;7.80;;;2.30;;
75851;SDS011;64500;52.632;20.656;2023-05-10T14:29:01;7.70;;;2.10;;
75851;SDS011;64500;52.632;20.656;2023-05-10T14:31:28;6.80;;;2.10;;
75851;SDS011;64500;52.632;20.656;2023-05-10T14:33:56;7.00;;;1.90;;
75851;SDS011;64500;52.632;20.656;2023-05-10T14:36:24;6.90;;;2.00;;
75851;SDS011;64500;52.632;20.656;2023-05-10T14:38:51;7.80;;;2.20;;
75851;SDS011;64500;52.632;20.656;2023-05-10T14:41:18;10.90;;;2.50;;
75851;SDS011;64500;52.632;20.656;2023-05-10T14:43:45;8.20;;;2.60;;
75851;SDS011;64500;52.632;20.656;2023-05-10T14:46:12;8.70;;;2.20;;
75851;SDS011;64500;52.632;20.656;2023-05-10T14:48:39;4.70;;;2.00;;
75851;SDS011;64500;52.632;20.656;2023-05-10T14:51:06;8.40;;;2.40;;
75851;SDS011;64500;52.632;20.656;2023-05-10T14:53:33;6.80;;;2.00;;
75851;SDS011;64500;52.632;20.656;2023-05-10T14:56:00;9.90;;;2.30;;
75851;SDS011;64500;52.632;20.656;2023-05-10T14:58:31;6.00;;;2.10;;
75851;SDS011;64500;52.632;20.656;2023-05-10T15:01:01;7.50;;;2.40;;
75851;SDS011;64500;52.632;20.656;2023-05-10T15:03:28;9.90;;;2.40;;